createdAt,value
2023-04-16T00:02:25.923Z,10.68
2023-04-16T00:05:28.623Z,9.90
2023-04-16T00:08:31.478Z,11.20
2023-04-16T00:11:33.987Z,10.88
2023-04-16T00:14:36.621Z,12.40
2023-04-16T00:17:41.760Z,11.07
2023-04-16T00:20:44.550Z,11.40
2023-04-16T00:23:47.203Z,11.90
2023-04-16T00:26:50.793Z,12.00
2023-04-16T00:29:53.767Z,11.43
2023-04-16T00:32:56.857Z,11.55
2023-04-16T00:35:59.587Z,11.10
2023-04-16T00:39:02.166Z,12.95
2023-04-16T00:42:05.841Z,15.70
2023-04-16T00:48:11.166Z,15.75
2023-04-16T00:51:13.624Z,18.08
2023-04-16T00:54:16.346Z,20.50
2023-04-16T00:57:21.123Z,17.73
2023-04-16T01:00:23.988Z,19.30
2023-04-16T01:03:39.783Z,18.55
2023-04-16T01:06:42.545Z,18.77
2023-04-16T01:09:44.952Z,18.45
2023-04-16T01:12:47.365Z,18.63
2023-04-16T01:15:49.884Z,21.02
2023-04-16T01:18:52.608Z,20.10
2023-04-16T01:21:55.379Z,20.13
2023-04-16T01:24:58.483Z,20.15
2023-04-16T01:28:01.554Z,19.77
2023-04-16T01:31:05.030Z,21.05
2023-04-16T01:34:30.607Z,22.92
2023-04-16T01:37:34.437Z,21.77
2023-04-16T01:40:38.709Z,21.77
2023-04-16T01:43:42.579Z,19.92
2023-04-16T01:46:45.330Z,21.17
2023-04-16T01:49:48.526Z,17.13
2023-04-16T01:52:51.633Z,14.02
2023-04-16T01:55:54.270Z,12.98
2023-04-16T01:58:57.273Z,13.70
2023-04-16T02:02:04.743Z,11.82
2023-04-16T02:05:08.984Z,12.60
2023-04-16T02:08:11.940Z,12.32
2023-04-16T02:11:14.521Z,12.02
2023-04-16T02:14:17.675Z,11.38
2023-04-16T02:17:20.560Z,12.55
2023-04-16T02:20:26.274Z,11.15
2023-04-16T02:23:34.407Z,11.35
2023-04-16T02:26:37.138Z,12.43
2023-04-16T02:29:44.608Z,12.00
2023-04-16T02:32:51.166Z,12.10
2023-04-16T02:35:55.230Z,12.60
2023-04-16T02:38:58.382Z,11.82
2023-04-16T02:42:02.842Z,13.25
2023-04-16T02:45:07.429Z,13.88
2023-04-16T02:48:10.593Z,11.85
2023-04-16T02:51:13.165Z,11.55
2023-04-16T02:54:15.791Z,11.82
2023-04-16T02:57:18.518Z,11.43
2023-04-16T03:00:21.125Z,10.73
2023-04-16T03:03:24.275Z,12.23
2023-04-16T03:06:27.158Z,11.57
2023-04-16T03:09:30.558Z,10.82
2023-04-16T03:12:33.886Z,10.40
2023-04-16T03:15:37.122Z,12.13
2023-04-16T03:18:39.974Z,10.95
2023-04-16T03:21:43.128Z,11.15
2023-04-16T03:24:45.536Z,10.25
2023-04-16T03:27:48.109Z,9.40
2023-04-16T03:30:52.920Z,9.45
2023-04-16T03:33:56.126Z,9.25
2023-04-16T03:36:58.922Z,9.55
2023-04-16T03:40:01.777Z,9.20
2023-04-16T03:43:04.825Z,9.63
2023-04-16T03:46:07.374Z,10.48
2023-04-16T03:49:10.196Z,9.40
2023-04-16T03:52:13.240Z,10.35
2023-04-16T03:55:16.358Z,9.73
2023-04-16T03:58:19.771Z,9.32
2023-04-16T04:01:23.307Z,9.95
2023-04-16T04:04:27.482Z,9.70
2023-04-16T04:07:30.447Z,9.57
2023-04-16T04:13:37.451Z,10.00
2023-04-16T04:16:40.348Z,10.25
2023-04-16T04:19:54.314Z,10.93
2023-04-16T04:23:04.552Z,9.57
2023-04-16T04:26:07.838Z,9.43
2023-04-16T04:29:11.270Z,10.23
2023-04-16T04:32:14.442Z,9.38
2023-04-16T04:35:17.464Z,9.38
2023-04-16T04:38:22.240Z,9.80
2023-04-16T04:41:27.197Z,9.68
2023-04-16T04:44:30.185Z,8.25
2023-04-16T04:47:33.551Z,8.68
2023-04-16T04:50:37.212Z,9.15
2023-04-16T04:53:40.194Z,8.90
2023-04-16T04:56:45.605Z,8.52
2023-04-16T04:59:49.382Z,9.05
2023-04-16T05:02:52.725Z,9.32
2023-04-16T05:05:56.167Z,8.90
2023-04-16T05:08:58.815Z,8.88
2023-04-16T05:12:01.355Z,9.00
2023-04-16T05:15:05.308Z,8.20
2023-04-16T05:18:07.840Z,8.52
2023-04-16T05:21:10.496Z,8.52
2023-04-16T05:24:14.868Z,8.05
2023-04-16T05:27:17.502Z,8.55
2023-04-16T05:30:20.605Z,7.60
2023-04-16T05:33:23.302Z,8.13
2023-04-16T05:36:25.744Z,7.70
2023-04-16T05:39:28.508Z,6.93
2023-04-16T05:42:31.230Z,7.43
2023-04-16T05:45:39.618Z,7.03
2023-04-16T05:48:42.699Z,7.30
2023-04-16T05:51:45.513Z,7.57
2023-04-16T05:54:48.032Z,7.80
2023-04-16T05:57:51.078Z,7.47
2023-04-16T06:00:53.452Z,7.50
2023-04-16T06:03:56.103Z,8.18
2023-04-16T06:06:58.915Z,8.00
2023-04-16T06:10:01.467Z,8.00
2023-04-16T06:13:04.576Z,7.40
2023-04-16T06:16:07.364Z,7.00
2023-04-16T06:19:10.048Z,7.05
2023-04-16T06:22:12.684Z,7.22
2023-04-16T06:25:18.022Z,6.82
2023-04-16T06:28:21.033Z,6.72
2023-04-16T06:31:24.683Z,6.30
2023-04-16T06:34:28.084Z,6.88
2023-04-16T06:40:37.082Z,6.63
2023-04-16T06:43:39.909Z,6.80
2023-04-16T06:46:42.418Z,6.70
2023-04-16T06:49:44.952Z,6.07
2023-04-16T06:52:47.403Z,6.65
2023-04-16T06:55:49.913Z,6.15
2023-04-16T06:58:52.456Z,5.50
2023-04-16T07:01:54.972Z,6.95
2023-04-16T07:04:57.510Z,6.63
2023-04-16T07:08:00.079Z,7.03
2023-04-16T07:11:02.771Z,7.82
2023-04-16T07:14:05.378Z,6.13
2023-04-16T07:17:07.855Z,6.28
2023-04-16T07:20:10.905Z,6.63
2023-04-16T07:23:13.496Z,6.95
2023-04-16T07:26:16.181Z,6.07
2023-04-16T07:29:18.561Z,6.63
2023-04-16T07:32:22.767Z,6.20
2023-04-16T07:35:25.498Z,6.57
2023-04-16T07:38:28.269Z,5.97
2023-04-16T07:41:31.140Z,6.25
2023-04-16T07:44:33.597Z,5.85
2023-04-16T07:47:36.269Z,5.32
2023-04-16T07:50:39.225Z,5.90
2023-04-16T07:53:43.506Z,5.47
2023-04-16T07:56:46.230Z,5.55
2023-04-16T07:59:48.686Z,5.25
2023-04-16T08:02:51.271Z,5.20
2023-04-16T08:05:53.732Z,5.78
2023-04-16T08:08:56.596Z,5.07
2023-04-16T08:12:00.823Z,5.43
2023-04-16T08:15:12.460Z,5.00
2023-04-16T08:18:15.751Z,5.13
2023-04-16T08:21:18.402Z,5.07
2023-04-16T08:24:21.594Z,5.80
2023-04-16T08:33:28.603Z,5.10
2023-04-16T08:36:31.978Z,4.90
2023-04-16T08:39:35.336Z,4.75
2023-04-16T08:42:45.187Z,5.55
2023-04-16T08:45:47.858Z,5.40
2023-04-16T08:48:50.332Z,5.13
2023-04-16T08:51:54.386Z,5.20
2023-04-16T08:55:15.399Z,5.28
2023-04-16T08:58:22.579Z,5.18
2023-04-16T09:01:25.651Z,5.40
2023-04-16T09:07:31.434Z,5.13
2023-04-16T09:10:36.778Z,4.82
2023-04-16T09:13:39.455Z,5.07
2023-04-16T09:16:42.272Z,5.10
2023-04-16T09:19:45.854Z,4.85
2023-04-16T09:22:48.591Z,5.38
2023-04-16T09:25:51.345Z,5.00
2023-04-16T09:28:53.699Z,4.80
2023-04-16T09:32:04.397Z,5.13
2023-04-16T09:35:07.059Z,5.35
2023-04-16T09:38:09.559Z,4.85
2023-04-16T09:41:11.955Z,5.57
2023-04-16T09:44:14.439Z,6.18
2023-04-16T09:47:17.104Z,4.97
2023-04-16T09:50:19.988Z,4.57
2023-04-16T09:53:29.095Z,5.93
2023-04-16T09:56:31.553Z,5.18
2023-04-16T09:59:36.009Z,5.72
2023-04-16T10:02:42.707Z,4.25
2023-04-16T10:05:45.433Z,4.25
2023-04-16T10:08:50.250Z,3.72
2023-04-16T10:11:52.923Z,3.85
2023-04-16T10:14:55.394Z,4.25
2023-04-16T10:17:58.048Z,3.13
2023-04-16T10:21:00.679Z,2.58
2023-04-16T10:24:03.181Z,2.30
2023-04-16T10:27:05.855Z,2.22
2023-04-16T10:30:09.359Z,2.10
2023-04-16T10:33:11.867Z,1.90
2023-04-16T10:36:16.343Z,1.88
2023-04-16T10:39:23.614Z,2.00
2023-04-16T10:42:26.236Z,1.80
2023-04-16T10:45:32.847Z,1.67
2023-04-16T10:48:46.712Z,1.95
2023-04-16T10:51:58.740Z,1.60
2023-04-16T10:55:01.447Z,1.75
2023-04-16T11:01:16.859Z,1.80
2023-04-16T11:04:19.549Z,1.70
2023-04-16T11:07:32.377Z,1.60
2023-04-16T11:10:39.411Z,1.63
2023-04-16T11:13:48.288Z,2.10
2023-04-16T11:16:50.763Z,1.63
2023-04-16T11:19:53.485Z,1.80
2023-04-16T11:22:57.354Z,1.92
2023-04-16T11:26:00.245Z,1.80
2023-04-16T11:29:04.875Z,1.67
2023-04-16T11:32:07.582Z,2.00
2023-04-16T11:35:14.712Z,1.92
2023-04-16T11:38:18.519Z,1.85
2023-04-16T11:41:21.974Z,1.83
2023-04-16T11:44:25.573Z,1.55
2023-04-16T11:47:29.903Z,2.08
2023-04-16T11:50:32.934Z,1.80
2023-04-16T11:53:35.502Z,1.70
2023-04-16T12:00:02.099Z,1.50
2023-04-16T12:03:15.229Z,1.60
2023-04-16T12:09:26.167Z,1.60
2023-04-16T12:12:31.166Z,1.48
2023-04-16T12:15:47.765Z,1.50
2023-04-16T12:19:01.710Z,1.70
2023-04-16T12:22:04.117Z,1.50
2023-04-16T12:25:13.978Z,1.40
2023-04-16T12:28:36.826Z,1.73
2023-04-16T12:31:39.386Z,1.40
2023-04-16T12:34:50.716Z,1.45
2023-04-16T12:37:53.195Z,1.50
2023-04-16T12:40:57.381Z,1.40
2023-04-16T12:44:12.051Z,1.60
2023-04-16T12:47:14.504Z,1.40
2023-04-16T12:50:16.999Z,1.40
2023-04-16T12:56:22.106Z,1.30
2023-04-16T12:59:24.728Z,1.70
2023-04-16T13:02:27.414Z,1.20
2023-04-16T13:05:30.236Z,1.60
2023-04-16T13:08:32.664Z,1.30
2023-04-16T13:11:35.184Z,1.30
2023-04-16T13:14:37.961Z,1.30
2023-04-16T13:17:40.612Z,1.20
2023-04-16T13:20:43.914Z,1.60
2023-04-16T13:23:46.447Z,1.30
2023-04-16T13:26:48.996Z,1.20
2023-04-16T13:29:51.726Z,1.35
2023-04-16T13:35:56.617Z,1.40
2023-04-16T13:38:59.592Z,1.55
2023-04-16T13:42:02.814Z,1.50
2023-04-16T13:45:05.782Z,1.35
2023-04-16T13:48:08.354Z,1.38
2023-04-16T13:51:10.862Z,1.63
2023-04-16T13:54:13.513Z,1.40
2023-04-16T13:57:16.177Z,1.10
2023-04-16T14:03:21.881Z,1.42
2023-04-16T14:06:24.459Z,1.45
2023-04-16T14:09:27.383Z,1.50
2023-04-16T14:12:30.048Z,1.15
2023-04-16T14:18:35.868Z,1.40
2023-04-16T14:21:38.516Z,1.50
2023-04-16T14:24:41.167Z,1.45
2023-04-16T14:27:43.836Z,1.60
2023-04-16T14:30:46.460Z,1.40
2023-04-16T14:33:48.852Z,1.50
2023-04-16T14:36:52.679Z,1.58
2023-04-16T14:39:55.375Z,1.52
2023-04-16T14:42:57.888Z,1.75
2023-04-16T14:46:00.444Z,1.63
2023-04-16T14:52:05.893Z,1.45
2023-04-16T14:55:08.514Z,1.70
2023-04-16T14:58:11.048Z,1.60
2023-04-16T15:04:17.977Z,1.60
2023-04-16T15:07:21.889Z,1.55
2023-04-16T15:10:24.496Z,1.33
2023-04-16T15:13:33.743Z,1.40
2023-04-16T15:16:36.476Z,1.55
2023-04-16T15:19:39.008Z,1.83
2023-04-16T15:25:44.249Z,1.50
2023-04-16T15:28:46.688Z,1.55
2023-04-16T15:31:49.297Z,1.40
2023-04-16T15:34:51.888Z,1.50
2023-04-16T15:41:00.062Z,1.52
2023-04-16T15:44:02.987Z,1.67
2023-04-16T15:47:08.256Z,1.65
2023-04-16T15:50:10.953Z,1.58
2023-04-16T15:53:13.530Z,1.58
2023-04-16T15:59:18.832Z,1.65
2023-04-16T16:02:21.547Z,1.80
2023-04-16T16:05:24.086Z,1.70
2023-04-16T16:08:26.695Z,1.70
2023-04-16T16:14:31.493Z,1.80
2023-04-16T16:17:33.901Z,1.75
2023-04-16T16:20:36.751Z,1.75
2023-04-16T16:23:39.275Z,2.00
2023-04-16T16:26:41.942Z,1.83
2023-04-16T16:32:47.551Z,1.88
2023-04-16T16:35:50.556Z,1.60
2023-04-16T16:38:53.586Z,2.70
2023-04-16T16:41:57.016Z,2.45
2023-04-16T16:44:59.513Z,2.13
2023-04-16T16:48:04.096Z,2.00
2023-04-16T16:51:09.820Z,1.92
2023-04-16T16:54:12.318Z,2.65
2023-04-16T16:57:15.516Z,4.88
2023-04-16T17:00:20.141Z,2.53
2023-04-16T17:03:22.835Z,2.53
2023-04-16T17:06:25.381Z,2.15
2023-04-16T17:09:27.938Z,2.20
2023-04-16T17:12:30.704Z,2.15
2023-04-16T17:15:33.477Z,2.08
2023-04-16T17:21:38.654Z,1.80
2023-04-16T17:24:41.289Z,1.83
2023-04-16T17:27:43.813Z,1.92
2023-04-16T17:30:50.562Z,2.50
2023-04-16T17:33:53.147Z,2.00
2023-04-16T17:36:55.566Z,1.95
2023-04-16T17:39:58.039Z,2.03
2023-04-16T17:43:00.483Z,2.20
2023-04-16T17:46:02.959Z,2.38
2023-04-16T17:49:05.843Z,2.50
2023-04-16T17:52:08.596Z,2.47
2023-04-16T17:55:11.222Z,2.47
2023-04-16T17:58:13.837Z,2.15
2023-04-16T18:01:16.342Z,2.08
2023-04-16T18:04:19.415Z,2.33
2023-04-16T18:07:22.350Z,2.33
2023-04-16T18:10:25.272Z,2.25
2023-04-16T18:13:28.015Z,2.22
2023-04-16T18:16:30.621Z,2.60
2023-04-16T18:19:33.132Z,2.28
2023-04-16T18:22:35.872Z,2.28
2023-04-16T18:25:40.215Z,2.33
2023-04-16T18:28:42.913Z,2.45
2023-04-16T18:31:45.379Z,2.30
2023-04-16T18:34:47.850Z,2.28
2023-04-16T18:37:50.630Z,2.63
2023-04-16T18:40:53.505Z,2.67
2023-04-16T18:43:56.169Z,2.55
2023-04-16T18:46:58.584Z,3.22
2023-04-16T18:50:01.048Z,2.17
2023-04-16T18:53:03.498Z,2.85
2023-04-16T18:56:06.213Z,2.92
2023-04-16T18:59:08.907Z,3.00
2023-04-16T19:02:11.400Z,2.53
2023-04-16T19:05:14.058Z,3.03
2023-04-16T19:08:16.828Z,2.85
2023-04-16T19:11:19.333Z,2.90
2023-04-16T19:14:21.935Z,2.83
2023-04-16T19:17:24.482Z,2.97
2023-04-16T19:20:27.240Z,3.00
2023-04-16T19:23:29.754Z,2.85
2023-04-16T19:26:32.127Z,2.83
2023-04-16T19:29:34.990Z,3.00
2023-04-16T19:32:37.565Z,3.05
2023-04-16T19:35:42.788Z,3.05
2023-04-16T19:38:45.404Z,2.90
2023-04-16T19:41:48.063Z,3.00
2023-04-16T19:44:50.472Z,2.95
2023-04-16T19:47:52.916Z,3.20
2023-04-16T19:50:55.465Z,3.20
2023-04-16T19:53:58.923Z,3.00
2023-04-16T19:57:01.671Z,3.15
2023-04-16T20:00:07.893Z,3.15
2023-04-16T20:03:10.318Z,3.25
2023-04-16T20:06:12.886Z,3.25
2023-04-16T20:09:15.347Z,3.50
2023-04-16T20:12:19.478Z,2.78
2023-04-16T20:15:22.232Z,3.08
2023-04-16T20:18:27.632Z,3.00
2023-04-16T20:21:31.793Z,2.80
2023-04-16T20:24:34.394Z,3.03
2023-04-16T20:27:36.962Z,3.08
2023-04-16T20:30:40.146Z,2.63
2023-04-16T20:33:42.517Z,3.10
2023-04-16T20:36:45.717Z,2.80
2023-04-16T20:39:50.118Z,3.42
2023-04-16T20:42:52.666Z,2.83
2023-04-16T20:45:55.474Z,3.30
2023-04-16T20:48:57.939Z,2.70
2023-04-16T20:52:02.201Z,2.72
2023-04-16T20:55:04.980Z,3.03
2023-04-16T20:58:07.374Z,2.90
2023-04-16T21:01:09.971Z,2.60
2023-04-16T21:04:12.511Z,2.80
2023-04-16T21:07:15.622Z,3.90
2023-04-16T21:13:23.140Z,2.35
2023-04-16T21:16:25.694Z,2.45
2023-04-16T21:19:28.942Z,2.75
2023-04-16T21:22:31.353Z,2.80
2023-04-16T21:25:33.891Z,2.45
2023-04-16T21:28:36.331Z,2.50
2023-04-16T21:31:39.013Z,2.85
2023-04-16T21:34:41.516Z,2.97
2023-04-16T21:37:44.151Z,2.70
2023-04-16T21:40:50.725Z,4.05
2023-04-16T21:43:53.222Z,3.38
2023-04-16T21:46:58.356Z,2.95
2023-04-16T21:50:00.943Z,3.20
2023-04-16T21:53:04.530Z,3.63
2023-04-16T21:56:07.533Z,3.30
2023-04-16T22:02:12.619Z,2.53
2023-04-16T22:05:15.591Z,2.58
2023-04-16T22:08:24.923Z,3.75
2023-04-16T22:11:27.796Z,4.10
2023-04-16T22:14:31.904Z,3.13
2023-04-16T22:17:34.483Z,3.28
2023-04-16T22:20:39.111Z,3.50
2023-04-16T22:23:41.794Z,3.47
2023-04-16T22:26:44.231Z,3.55
2023-04-16T22:29:46.710Z,2.78
2023-04-16T22:32:49.126Z,2.85
2023-04-16T22:35:51.601Z,2.70
2023-04-16T22:38:56.982Z,2.97
2023-04-16T22:41:59.417Z,2.67
2023-04-16T22:45:01.905Z,2.58
2023-04-16T22:48:04.870Z,3.08
2023-04-16T22:51:10.833Z,2.72
2023-04-16T22:54:14.033Z,3.47
2023-04-16T22:57:21.130Z,3.28
2023-04-16T23:00:24.900Z,2.47
2023-04-16T23:03:27.563Z,2.22
2023-04-16T23:06:31.712Z,2.50
2023-04-16T23:09:34.355Z,2.40
2023-04-16T23:12:39.474Z,2.50
2023-04-16T23:15:41.961Z,2.42
2023-04-16T23:18:44.725Z,2.38
2023-04-16T23:21:47.223Z,2.40
2023-04-16T23:24:50.934Z,2.10
2023-04-16T23:27:53.444Z,2.40
2023-04-16T23:30:56.495Z,2.30
2023-04-16T23:33:59.157Z,2.13
2023-04-16T23:37:01.646Z,2.50
2023-04-16T23:40:05.002Z,2.40
2023-04-16T23:43:07.466Z,2.58
2023-04-16T23:46:10.175Z,2.60
2023-04-16T23:49:12.895Z,2.38
2023-04-16T23:52:15.569Z,2.03
2023-04-16T23:55:18.186Z,2.17
2023-04-16T23:58:20.598Z,2.55
